LHX04E EDDM-LEVC
Flight info
| Callsign | LHX04E |
|---|---|
| Flight time | N/A |
| Altitude | 35000 |
| Route | TURBU7S/26L TURBU Y107 TOBSO DCT BAKOR DCT GEKBA DCT VAMTU DCT KOLON DCT GANGU DCT PADKO DCT DIVKO DCT MAMES DCT BISBA DCT BGR DCT NENDA DCT BCN DCT RODRA DCT PEXOT DCT EBROX DCT LOTOS DCT TORDU DCT DIKUT M985 SOPET |
| Aircraft | A320/M-SDE3FGHIRWY/LB1 |
Departure
| Time | N/A |
|---|---|
| Airport | Munich Airport (EDDM) |
Arrival
| Time | 2026-05-06 19:32 |
|---|---|
| Airport | Valencia Airport (LEVC) |
| Time | Latitude | Longitude | Altitude | Speed | Heading |
|---|---|---|---|---|---|
| 2026-05-06 18:46 | 42.13486 | 3.51386 | 34959 ft | 397 kts | 233° |
| 2026-05-06 18:46 | 42.09978 | 3.45649 | 34981 ft | 396 kts | 233° |
| 2026-05-06 18:47 | 42.06473 | 3.39921 | 34978 ft | 396 kts | 233° |
| 2026-05-06 18:47 | 42.02965 | 3.34206 | 34983 ft | 396 kts | 232° |
| 2026-05-06 18:48 | 41.99456 | 3.28495 | 34974 ft | 396 kts | 232° |
| 2026-05-06 18:48 | 41.95969 | 3.22835 | 34980 ft | 396 kts | 232° |
| 2026-05-06 18:49 | 41.92510 | 3.17092 | 34957 ft | 395 kts | 234° |
| 2026-05-06 18:49 | 41.89186 | 3.11233 | 34968 ft | 394 kts | 235° |
| 2026-05-06 18:50 | 41.85903 | 3.05408 | 34967 ft | 394 kts | 234° |
| 2026-05-06 18:50 | 41.82567 | 2.99574 | 34971 ft | 394 kts | 234° |
| 2026-05-06 18:51 | 41.79213 | 2.93754 | 34965 ft | 395 kts | 234° |
| 2026-05-06 18:51 | 41.75854 | 2.87935 | 34966 ft | 395 kts | 234° |
| 2026-05-06 18:52 | 41.72488 | 2.82118 | 34943 ft | 395 kts | 234° |
| 2026-05-06 18:52 | 41.69145 | 2.76352 | 34957 ft | 395 kts | 234° |
| 2026-05-06 18:53 | 41.65784 | 2.70550 | 34960 ft | 394 kts | 234° |
| 2026-05-06 18:53 | 41.62416 | 2.64758 | 34963 ft | 395 kts | 234° |
| 2026-05-06 18:54 | 41.59035 | 2.58963 | 34959 ft | 396 kts | 234° |
| 2026-05-06 18:54 | 41.55674 | 2.53205 | 34952 ft | 396 kts | 234° |
| 2026-05-06 18:55 | 41.52283 | 2.47404 | 34932 ft | 396 kts | 234° |
| 2026-05-06 18:55 | 41.48899 | 2.41619 | 34954 ft | 395 kts | 234° |
| 2026-05-06 18:56 | 41.45518 | 2.35860 | 34963 ft | 394 kts | 234° |
| 2026-05-06 18:56 | 41.42161 | 2.30153 | 34962 ft | 394 kts | 234° |
| 2026-05-06 18:57 | 41.38779 | 2.24415 | 34961 ft | 394 kts | 234° |
| 2026-05-06 18:57 | 41.35395 | 2.18674 | 34950 ft | 394 kts | 234° |
| 2026-05-06 18:58 | 41.32001 | 2.12942 | 34918 ft | 394 kts | 234° |
| 2026-05-06 18:58 | 41.28548 | 2.07345 | 34944 ft | 394 kts | 232° |
| 2026-05-06 18:59 | 41.24871 | 2.01948 | 34954 ft | 394 kts | 230° |
| 2026-05-06 18:59 | 41.21162 | 1.96600 | 34958 ft | 393 kts | 231° |
| 2026-05-06 19:00 | 41.17488 | 1.91227 | 34960 ft | 393 kts | 231° |
| 2026-05-06 19:00 | 41.13836 | 1.85834 | 34964 ft | 393 kts | 231° |
| 2026-05-06 19:01 | 41.10205 | 1.80472 | 34947 ft | 393 kts | 231° |
| 2026-05-06 19:01 | 41.06547 | 1.75099 | 34952 ft | 392 kts | 231° |
| 2026-05-06 19:02 | 41.02894 | 1.69739 | 34951 ft | 392 kts | 231° |
| 2026-05-06 19:02 | 40.99237 | 1.64397 | 34951 ft | 391 kts | 231° |
| 2026-05-06 19:03 | 40.95607 | 1.59092 | 34947 ft | 391 kts | 231° |
| 2026-05-06 19:03 | 40.91958 | 1.53752 | 34947 ft | 391 kts | 231° |
| 2026-05-06 19:04 | 40.88301 | 1.48416 | 34927 ft | 392 kts | 231° |
| 2026-05-06 19:04 | 40.84633 | 1.43091 | 34940 ft | 392 kts | 231° |
| 2026-05-06 19:05 | 40.80991 | 1.37808 | 34948 ft | 392 kts | 231° |
| 2026-05-06 19:05 | 40.77324 | 1.32491 | 34944 ft | 392 kts | 231° |
| 2026-05-06 19:06 | 40.73653 | 1.27191 | 34949 ft | 391 kts | 230° |
| 2026-05-06 19:06 | 40.69977 | 1.21898 | 34956 ft | 391 kts | 231° |
| 2026-05-06 19:07 | 40.66336 | 1.16639 | 34951 ft | 391 kts | 231° |
| 2026-05-06 19:07 | 40.62668 | 1.11348 | 34966 ft | 391 kts | 230° |
| 2026-05-06 19:08 | 40.58990 | 1.06063 | 34956 ft | 392 kts | 230° |
| 2026-05-06 19:08 | 40.55304 | 1.00785 | 34954 ft | 392 kts | 230° |
| 2026-05-06 19:09 | 40.51642 | 0.95547 | 34951 ft | 392 kts | 230° |
| 2026-05-06 19:09 | 40.47952 | 0.90275 | 34950 ft | 392 kts | 230° |
| 2026-05-06 19:10 | 40.44256 | 0.85010 | 34940 ft | 391 kts | 230° |
| 2026-05-06 19:10 | 40.40569 | 0.79761 | 34943 ft | 391 kts | 230° |
| 2026-05-06 19:11 | 40.36883 | 0.74525 | 34959 ft | 391 kts | 230° |
| 2026-05-06 19:11 | 40.33218 | 0.69316 | 34897 ft | 393 kts | 230° |
| 2026-05-06 19:11 | 40.31364 | 0.66687 | 34655 ft | 392 kts | 230° |
| 2026-05-06 19:12 | 40.29512 | 0.64071 | 34416 ft | 391 kts | 230° |
| 2026-05-06 19:12 | 40.27662 | 0.61464 | 34180 ft | 390 kts | 230° |
| 2026-05-06 19:12 | 40.25818 | 0.58864 | 33944 ft | 389 kts | 230° |
| 2026-05-06 19:12 | 40.23978 | 0.56272 | 33636 ft | 387 kts | 230° |
| 2026-05-06 19:13 | 40.22145 | 0.53691 | 33359 ft | 387 kts | 230° |
| 2026-05-06 19:13 | 40.20337 | 0.51142 | 33091 ft | 388 kts | 230° |
| 2026-05-06 19:13 | 40.18501 | 0.48551 | 32827 ft | 389 kts | 230° |
| 2026-05-06 19:13 | 40.16659 | 0.45954 | 32562 ft | 390 kts | 230° |
| 2026-05-06 19:14 | 40.14803 | 0.43346 | 31791 ft | 394 kts | 229° |
| 2026-05-06 19:14 | 40.12921 | 0.40710 | 30763 ft | 399 kts | 229° |
| 2026-05-06 19:14 | 40.11017 | 0.38043 | 29735 ft | 404 kts | 229° |
| 2026-05-06 19:14 | 40.09090 | 0.35340 | 28572 ft | 408 kts | 229° |
| 2026-05-06 19:15 | 40.07147 | 0.32616 | 27430 ft | 412 kts | 229° |
| 2026-05-06 19:15 | 40.05210 | 0.29910 | 26470 ft | 414 kts | 229° |
| 2026-05-06 19:15 | 40.03259 | 0.27191 | 25788 ft | 408 kts | 229° |
| 2026-05-06 19:15 | 40.01326 | 0.24496 | 25026 ft | 406 kts | 229° |
| 2026-05-06 19:16 | 39.99402 | 0.21810 | 24283 ft | 405 kts | 229° |
| 2026-05-06 19:16 | 39.97483 | 0.19128 | 23552 ft | 404 kts | 229° |
| 2026-05-06 19:16 | 39.95570 | 0.16457 | 22759 ft | 402 kts | 229° |
| 2026-05-06 19:16 | 39.93669 | 0.13811 | 22086 ft | 398 kts | 229° |
| 2026-05-06 19:17 | 39.91784 | 0.11191 | 21431 ft | 395 kts | 229° |
| 2026-05-06 19:17 | 39.89942 | 0.08631 | 20797 ft | 391 kts | 229° |
| 2026-05-06 19:17 | 39.88087 | 0.06058 | 20173 ft | 388 kts | 229° |
| 2026-05-06 19:17 | 39.86248 | 0.03508 | 19574 ft | 385 kts | 229° |
| 2026-05-06 19:18 | 39.84424 | 0.00977 | 18983 ft | 382 kts | 229° |
| 2026-05-06 19:18 | 39.82617 | -0.01533 | 18429 ft | 379 kts | 229° |
| 2026-05-06 19:18 | 39.80820 | -0.04022 | 17830 ft | 376 kts | 229° |
| 2026-05-06 19:18 | 39.79040 | -0.06479 | 17309 ft | 371 kts | 229° |
| 2026-05-06 19:19 | 39.77279 | -0.08900 | 16802 ft | 366 kts | 228° |
| 2026-05-06 19:19 | 39.75536 | -0.11293 | 16310 ft | 362 kts | 228° |
| 2026-05-06 19:19 | 39.73822 | -0.13670 | 15828 ft | 359 kts | 231° |
| 2026-05-06 19:19 | 39.72519 | -0.16347 | 15346 ft | 354 kts | 248° |
| 2026-05-06 19:20 | 39.71903 | -0.19421 | 14731 ft | 354 kts | 265° |
| 2026-05-06 19:20 | 39.72063 | -0.22616 | 14118 ft | 356 kts | 283° |
| 2026-05-06 19:20 | 39.72971 | -0.25595 | 13571 ft | 356 kts | 300° |
| 2026-05-06 19:20 | 39.74275 | -0.28315 | 13027 ft | 353 kts | 300° |
| 2026-05-06 19:21 | 39.75451 | -0.31103 | 12451 ft | 351 kts | 295° |
| 2026-05-06 19:21 | 39.76449 | -0.33984 | 11880 ft | 349 kts | 291° |
| 2026-05-06 19:21 | 39.77254 | -0.36950 | 11288 ft | 347 kts | 286° |
| 2026-05-06 19:21 | 39.77852 | -0.39922 | 10914 ft | 339 kts | 282° |
| 2026-05-06 19:22 | 39.78251 | -0.42878 | 10786 ft | 325 kts | 277° |
| 2026-05-06 19:22 | 39.78471 | -0.45739 | 10662 ft | 312 kts | 274° |
| 2026-05-06 19:22 | 39.78535 | -0.48501 | 10539 ft | 300 kts | 270° |
| 2026-05-06 19:22 | 39.78456 | -0.51161 | 10412 ft | 289 kts | 266° |
| 2026-05-06 19:23 | 39.78244 | -0.53729 | 10214 ft | 282 kts | 262° |
| 2026-05-06 19:23 | 39.77904 | -0.56231 | 10158 ft | 281 kts | 258° |
| 2026-05-06 19:23 | 39.77441 | -0.58698 | 10073 ft | 281 kts | 255° |
| 2026-05-06 19:23 | 39.76866 | -0.61079 | 9956 ft | 271 kts | 251° |
| 2026-05-06 19:24 | 39.76199 | -0.63340 | 9529 ft | 273 kts | 248° |
| 2026-05-06 19:24 | 39.75406 | -0.65588 | 9108 ft | 274 kts | 244° |
| 2026-05-06 19:24 | 39.74505 | -0.67772 | 8701 ft | 274 kts | 241° |
| 2026-05-06 19:24 | 39.73499 | -0.69878 | 8300 ft | 274 kts | 237° |
| 2026-05-06 19:25 | 39.72390 | -0.71893 | 7896 ft | 274 kts | 233° |
| 2026-05-06 19:25 | 39.71187 | -0.73806 | 7497 ft | 273 kts | 229° |
| 2026-05-06 19:25 | 39.69889 | -0.75612 | 7098 ft | 273 kts | 225° |
| 2026-05-06 19:25 | 39.68510 | -0.77301 | 6728 ft | 272 kts | 221° |
| 2026-05-06 19:26 | 39.67060 | -0.78876 | 6341 ft | 271 kts | 218° |
| 2026-05-06 19:26 | 39.65481 | -0.80062 | 6028 ft | 265 kts | 193° |
| 2026-05-06 19:26 | 39.63696 | -0.79942 | 5713 ft | 257 kts | 156° |
| 2026-05-06 19:26 | 39.62371 | -0.78528 | 5410 ft | 244 kts | 123° |
| 2026-05-06 19:27 | 39.61471 | -0.76727 | 5090 ft | 234 kts | 128° |
| 2026-05-06 19:27 | 39.60353 | -0.75234 | 4777 ft | 228 kts | 137° |
| 2026-05-06 19:27 | 39.59164 | -0.73903 | 4449 ft | 223 kts | 137° |
| 2026-05-06 19:27 | 39.58184 | -0.72363 | 4061 ft | 221 kts | 122° |
| 2026-05-06 19:28 | 39.57451 | -0.70638 | 3731 ft | 215 kts | 117° |
| 2026-05-06 19:28 | 39.56809 | -0.68946 | 3447 ft | 209 kts | 117° |
| 2026-05-06 19:28 | 39.56184 | -0.67287 | 3178 ft | 202 kts | 116° |
| 2026-05-06 19:28 | 39.55578 | -0.65683 | 2931 ft | 193 kts | 117° |
| 2026-05-06 19:29 | 39.55004 | -0.64167 | 2671 ft | 183 kts | 116° |
| 2026-05-06 19:29 | 39.54455 | -0.62716 | 2415 ft | 174 kts | 116° |
| 2026-05-06 19:29 | 39.53931 | -0.61334 | 2181 ft | 169 kts | 116° |
| 2026-05-06 19:29 | 39.53435 | -0.60023 | 2005 ft | 153 kts | 116° |
| 2026-05-06 19:30 | 39.52988 | -0.58844 | 1778 ft | 140 kts | 116° |
| 2026-05-06 19:30 | 39.52573 | -0.57747 | 1578 ft | 137 kts | 116° |
| 2026-05-06 19:30 | 39.52154 | -0.56645 | 1384 ft | 134 kts | 117° |
| 2026-05-06 19:30 | 39.51751 | -0.55581 | 1190 ft | 131 kts | 117° |
| 2026-05-06 19:31 | 39.51346 | -0.54516 | 1016 ft | 134 kts | 115° |
| 2026-05-06 19:31 | 39.50925 | -0.53399 | 863 ft | 141 kts | 115° |
| 2026-05-06 19:31 | 39.50065 | -0.51145 | 485 ft | 139 kts | 115° |
| 2026-05-06 19:32 | 39.49641 | -0.50023 | 247 ft | 139 kts | 116° |
| 2026-05-06 19:32 | 39.49255 | -0.49007 | 214 ft | 107 kts | 117° |
| 2026-05-06 19:32 | 39.49005 | -0.48353 | 208 ft | 58 kts | 116° |
| 2026-05-06 19:32 | 39.48859 | -0.47968 | 211 ft | 43 kts | 116° |
| 2026-05-06 19:33 | 39.48738 | -0.47653 | 215 ft | 34 kts | 117° |
| 2026-05-06 19:33 | 39.48656 | -0.47441 | 218 ft | 19 kts | 109° |
| 2026-05-06 19:33 | 39.48655 | -0.47311 | 212 ft | 12 kts | 77° |
| 2026-05-06 19:33 | 39.48698 | -0.47203 | 211 ft | 15 kts | 39° |
| 2026-05-06 19:34 | 39.48771 | -0.47180 | 214 ft | 8 kts | 353° |
| 2026-05-06 19:34 | 39.48817 | -0.47204 | 212 ft | 7 kts | 336° |
| 2026-05-06 19:34 | 39.48858 | -0.47226 | 212 ft | 6 kts | 336° |
| 2026-05-06 19:34 | 39.48893 | -0.47245 | 214 ft | 5 kts | 337° |
| 2026-05-06 19:35 | 39.48929 | -0.47293 | 209 ft | 12 kts | 296° |
| 2026-05-06 19:35 | 39.48965 | -0.47387 | 214 ft | 10 kts | 296° |
| 2026-05-06 19:35 | 39.48993 | -0.47460 | 214 ft | 8 kts | 296° |
| 2026-05-06 19:35 | 39.49017 | -0.47524 | 209 ft | 7 kts | 295° |
| 2026-05-06 19:36 | 39.49048 | -0.47546 | 211 ft | 5 kts | 20° |
| 2026-05-06 19:36 | 39.49072 | -0.47520 | 214 ft | 4 kts | 45° |
| 2026-05-06 19:36 | 39.49089 | -0.47498 | 209 ft | 3 kts | 45° |
| 2026-05-06 19:36 | 39.49098 | -0.47486 | 209 ft | 1 kts | 45° |
| 2026-05-06 19:37 | 39.49099 | -0.47485 | 209 ft | 0 kts | 45° |